createdAt,value
2023-03-26T00:01:24.547Z,6.90
2023-03-26T00:03:58.305Z,6.95
2023-03-26T00:06:36.726Z,6.51
2023-03-26T00:09:06.045Z,6.93
2023-03-26T00:11:32.803Z,7.05
2023-03-26T00:13:59.441Z,7.17
2023-03-26T00:16:30.183Z,7.29
2023-03-26T00:18:58.120Z,7.85
2023-03-26T00:21:28.416Z,7.72
2023-03-26T00:23:58.427Z,7.82
2023-03-26T00:26:26.656Z,7.24
2023-03-26T00:28:54.762Z,7.08
2023-03-26T00:31:21.517Z,6.80
2023-03-26T00:33:48.597Z,6.79
2023-03-26T00:36:17.440Z,6.83
2023-03-26T00:38:46.859Z,6.96
2023-03-26T00:41:23.312Z,7.17
2023-03-26T00:43:58.159Z,6.34
2023-03-26T00:46:26.958Z,5.99
2023-03-26T00:48:54.515Z,6.66
2023-03-26T00:51:22.216Z,5.88
2023-03-26T00:53:50.461Z,5.50
2023-03-26T00:56:18.041Z,5.41
2023-03-26T00:58:46.380Z,5.83
2023-03-26T01:01:17.142Z,7.55
2023-03-26T01:04:00.841Z,7.76
2023-03-26T01:06:36.719Z,6.98
2023-03-26T01:09:17.285Z,6.89
2023-03-26T01:11:45.598Z,7.51
2023-03-26T01:14:17.637Z,7.00
2023-03-26T01:16:50.081Z,7.67
2023-03-26T01:19:26.008Z,7.15
2023-03-26T01:21:52.783Z,7.37
2023-03-26T01:24:19.674Z,7.41
2023-03-26T01:27:09.709Z,7.16
2023-03-26T01:29:42.988Z,8.25
2023-03-26T01:32:21.474Z,7.89
2023-03-26T01:35:04.656Z,7.95
2023-03-26T01:38:11.021Z,8.86
2023-03-26T01:40:57.112Z,8.18
2023-03-26T01:43:29.722Z,8.38
2023-03-26T01:46:02.039Z,8.51
2023-03-26T01:48:33.358Z,8.24
2023-03-26T01:51:00.049Z,9.44
2023-03-26T01:53:27.642Z,9.28
2023-03-26T01:56:24.963Z,8.39
2023-03-26T01:59:04.373Z,8.43
2023-03-26T02:01:46.213Z,8.38
2023-03-26T02:04:45.971Z,8.42
2023-03-26T02:07:41.969Z,8.33
2023-03-26T02:10:26.064Z,8.14
2023-03-26T02:12:54.165Z,8.72
2023-03-26T02:15:21.344Z,7.55
2023-03-26T02:17:49.624Z,8.20
2023-03-26T02:20:19.126Z,8.00
2023-03-26T02:22:47.309Z,8.75
2023-03-26T02:25:17.517Z,8.87
2023-03-26T02:27:45.457Z,8.45
2023-03-26T02:30:19.207Z,8.14
2023-03-26T02:32:46.029Z,8.44
2023-03-26T02:35:13.436Z,7.71
2023-03-26T02:37:42.029Z,8.25
2023-03-26T02:40:11.813Z,8.00
2023-03-26T02:42:39.352Z,8.39
2023-03-26T02:45:07.163Z,8.25
2023-03-26T02:47:34.950Z,8.96
2023-03-26T02:50:03.778Z,8.79
2023-03-26T02:52:30.767Z,8.17
2023-03-26T02:54:57.727Z,7.64
2023-03-26T02:57:25.175Z,8.30
2023-03-26T02:59:52.789Z,7.58
2023-03-26T03:02:20.267Z,7.48
2023-03-26T03:04:47.040Z,7.27
2023-03-26T03:07:14.989Z,8.76
2023-03-26T03:09:41.732Z,8.13
2023-03-26T03:12:08.586Z,8.79
2023-03-26T03:14:35.374Z,9.00
2023-03-26T03:17:02.315Z,8.64
2023-03-26T03:19:29.238Z,8.85
2023-03-26T03:21:56.322Z,9.91
2023-03-26T03:24:23.529Z,10.31
2023-03-26T03:26:50.493Z,11.08
2023-03-26T03:29:17.337Z,11.45
2023-03-26T03:31:44.148Z,11.95
2023-03-26T03:34:10.895Z,11.14
2023-03-26T03:36:38.483Z,11.25
2023-03-26T03:39:05.518Z,12.67
2023-03-26T03:41:32.274Z,11.33
2023-03-26T03:44:00.028Z,12.36
2023-03-26T03:46:26.713Z,14.09
2023-03-26T03:48:53.365Z,13.51
2023-03-26T03:51:20.420Z,11.78
2023-03-26T03:53:47.620Z,13.16
2023-03-26T03:56:14.910Z,13.23
2023-03-26T03:58:42.434Z,13.28
2023-03-26T04:01:09.240Z,12.83
2023-03-26T04:03:38.864Z,13.48
2023-03-26T04:06:07.321Z,13.82
2023-03-26T04:08:34.776Z,13.98
2023-03-26T04:11:01.693Z,14.14
2023-03-26T04:13:28.868Z,14.04
2023-03-26T04:15:57.143Z,13.01
2023-03-26T04:18:24.027Z,12.90
2023-03-26T04:20:50.814Z,13.40
2023-03-26T04:23:19.347Z,12.97
2023-03-26T04:25:56.180Z,13.39
2023-03-26T04:28:33.674Z,13.11
2023-03-26T04:31:03.786Z,13.11
2023-03-26T04:33:33.920Z,13.83
2023-03-26T04:36:03.059Z,12.84
2023-03-26T04:38:34.229Z,12.90
2023-03-26T04:41:04.031Z,14.41
2023-03-26T04:43:31.416Z,13.96
2023-03-26T04:45:58.062Z,14.26
2023-03-26T04:48:24.722Z,13.35
2023-03-26T04:50:51.739Z,14.14
2023-03-26T04:53:21.708Z,14.22
2023-03-26T04:55:56.223Z,14.08
2023-03-26T04:58:32.868Z,14.85
2023-03-26T05:01:10.393Z,14.44
2023-03-26T05:03:39.265Z,14.09
2023-03-26T05:06:06.379Z,14.89
2023-03-26T05:08:33.325Z,15.39
2023-03-26T05:11:00.285Z,13.82
2023-03-26T05:13:27.333Z,15.36
2023-03-26T05:15:55.857Z,23.06
2023-03-26T05:18:22.504Z,22.57
2023-03-26T05:20:49.302Z,22.78
2023-03-26T05:23:16.129Z,24.60
2023-03-26T05:25:42.826Z,30.74
2023-03-26T05:28:10.957Z,38.72
2023-03-26T05:30:37.781Z,31.34
2023-03-26T05:33:05.020Z,24.31
2023-03-26T05:35:32.121Z,23.53
2023-03-26T05:37:58.809Z,21.57
2023-03-26T05:40:25.468Z,29.83
2023-03-26T05:42:52.320Z,28.44
2023-03-26T05:45:19.082Z,26.85
2023-03-26T05:47:45.872Z,32.07
2023-03-26T05:50:12.656Z,22.62
2023-03-26T05:52:41.709Z,19.04
2023-03-26T05:55:09.945Z,16.28
2023-03-26T05:57:36.730Z,15.20
2023-03-26T06:00:08.751Z,13.52
2023-03-26T06:02:36.072Z,14.26
2023-03-26T06:05:02.996Z,13.95
2023-03-26T06:07:30.092Z,14.63
2023-03-26T06:09:57.030Z,15.20
2023-03-26T06:12:23.630Z,14.39
2023-03-26T06:16:06.558Z,15.53
2023-03-26T06:18:33.253Z,13.38
2023-03-26T06:20:59.996Z,13.29
2023-03-26T06:23:26.780Z,14.28
2023-03-26T06:25:53.403Z,13.85
2023-03-26T06:28:20.218Z,13.49
2023-03-26T06:30:48.893Z,13.44
2023-03-26T06:33:15.912Z,41.19
2023-03-26T06:35:44.352Z,26.33
2023-03-26T06:38:11.805Z,15.23
2023-03-26T06:40:38.698Z,15.86
2023-03-26T06:43:07.579Z,16.35
2023-03-26T06:45:37.675Z,15.41
2023-03-26T06:48:04.998Z,13.34
2023-03-26T06:50:33.097Z,13.24
2023-03-26T06:52:59.884Z,15.65
2023-03-26T06:55:27.071Z,16.64
2023-03-26T06:57:56.039Z,14.30
2023-03-26T07:00:22.886Z,14.29
2023-03-26T07:02:51.925Z,14.22
2023-03-26T07:05:18.966Z,14.25
2023-03-26T07:07:47.573Z,13.66
2023-03-26T07:10:16.739Z,13.82
2023-03-26T07:12:43.541Z,14.20
2023-03-26T07:15:10.692Z,13.71
2023-03-26T07:17:37.650Z,14.94
2023-03-26T07:20:06.578Z,14.71
2023-03-26T07:22:34.478Z,14.80
2023-03-26T07:25:03.671Z,16.34
2023-03-26T07:27:49.236Z,16.36
2023-03-26T07:30:47.528Z,15.42
2023-03-26T07:33:38.117Z,14.66
2023-03-26T07:36:20.861Z,15.88
2023-03-26T07:39:14.393Z,16.21
2023-03-26T07:41:54.287Z,15.76
2023-03-26T07:44:54.008Z,15.99
2023-03-26T07:47:33.344Z,16.09
2023-03-26T07:50:00.552Z,17.42
2023-03-26T07:52:28.267Z,17.96
2023-03-26T07:54:55.696Z,17.59
2023-03-26T07:58:00.980Z,16.98
2023-03-26T08:00:37.288Z,15.47
2023-03-26T08:03:16.138Z,16.13
2023-03-26T08:05:57.945Z,16.20
2023-03-26T08:08:46.292Z,16.68
2023-03-26T08:11:40.370Z,15.95
2023-03-26T08:14:24.532Z,18.85
2023-03-26T08:17:38.809Z,17.98
2023-03-26T08:20:32.640Z,17.41
2023-03-26T08:23:14.770Z,15.52
2023-03-26T08:25:59.439Z,15.09
2023-03-26T08:28:58.828Z,15.55
2023-03-26T08:31:36.501Z,14.48
2023-03-26T08:34:03.234Z,15.31
2023-03-26T08:36:30.129Z,15.45
2023-03-26T08:38:59.749Z,15.69
2023-03-26T08:41:55.871Z,16.55
2023-03-26T08:44:48.947Z,20.38
2023-03-26T08:47:40.350Z,18.46
2023-03-26T08:50:44.326Z,17.16
2023-03-26T08:53:40.268Z,17.63
2023-03-26T08:56:25.872Z,17.04
2023-03-26T08:59:14.361Z,17.62
2023-03-26T09:02:08.885Z,17.27
2023-03-26T09:05:10.653Z,17.52
2023-03-26T09:07:52.618Z,17.59
2023-03-26T09:10:43.905Z,18.42
2023-03-26T09:13:45.239Z,18.88
2023-03-26T09:17:02.792Z,18.24
2023-03-26T09:19:56.593Z,17.94
2023-03-26T09:22:38.356Z,18.26
2023-03-26T09:25:12.688Z,17.68
2023-03-26T09:28:00.155Z,20.39
2023-03-26T09:30:45.372Z,18.42
2023-03-26T09:33:23.550Z,17.23
2023-03-26T09:35:54.264Z,16.15
2023-03-26T09:38:36.901Z,15.24
2023-03-26T09:41:34.722Z,15.57
2023-03-26T09:44:25.608Z,16.00
2023-03-26T09:46:55.493Z,14.16
2023-03-26T09:49:44.029Z,15.97
2023-03-26T09:52:53.444Z,14.39
2023-03-26T09:55:50.962Z,14.45
2023-03-26T09:58:42.806Z,15.27
2023-03-26T10:01:11.249Z,17.10
2023-03-26T10:04:12.451Z,15.80
2023-03-26T10:07:03.762Z,15.28
2023-03-26T10:09:38.642Z,12.85
2023-03-26T10:12:41.942Z,11.80
2023-03-26T10:15:27.448Z,12.63
2023-03-26T10:18:32.336Z,13.23
2023-03-26T10:21:10.671Z,12.14
2023-03-26T10:24:02.724Z,11.43
2023-03-26T10:26:31.897Z,11.03
2023-03-26T10:29:09.800Z,11.05
2023-03-26T10:32:10.945Z,10.59
2023-03-26T10:34:58.292Z,12.98
2023-03-26T10:37:40.989Z,15.03
2023-03-26T10:40:24.269Z,17.49
2023-03-26T10:43:36.514Z,16.51
2023-03-26T10:46:31.876Z,11.63
2023-03-26T10:49:14.740Z,12.77
2023-03-26T10:52:07.902Z,9.88
2023-03-26T10:54:51.601Z,10.37
2023-03-26T10:57:33.455Z,8.81
2023-03-26T11:00:25.329Z,9.84
2023-03-26T11:03:13.556Z,11.49
2023-03-26T11:05:49.359Z,11.21
2023-03-26T11:08:31.188Z,13.89
2023-03-26T11:11:22.057Z,10.02
2023-03-26T11:14:03.611Z,9.00
2023-03-26T11:17:08.065Z,7.89
2023-03-26T11:19:51.523Z,7.77
2023-03-26T11:22:58.106Z,9.24
2023-03-26T11:25:44.423Z,9.66
2023-03-26T11:28:34.417Z,7.12
2023-03-26T11:31:14.225Z,7.09
2023-03-26T11:33:52.133Z,5.78
2023-03-26T11:36:31.954Z,9.11
2023-03-26T11:39:04.786Z,7.81
2023-03-26T11:41:31.473Z,7.84
2023-03-26T11:44:37.806Z,7.23
2023-03-26T11:47:10.514Z,9.09
2023-03-26T11:49:39.576Z,7.34
2023-03-26T11:52:07.705Z,9.51
2023-03-26T11:54:34.474Z,9.20
2023-03-26T11:57:10.826Z,15.68
2023-03-26T12:00:08.285Z,8.38
2023-03-26T12:02:40.606Z,7.44
2023-03-26T12:05:21.190Z,6.87
2023-03-26T12:08:17.877Z,7.41
2023-03-26T12:10:47.298Z,7.93
2023-03-26T12:13:37.220Z,8.26
2023-03-26T12:16:15.636Z,7.21
2023-03-26T12:18:44.838Z,6.53
2023-03-26T12:21:50.498Z,7.66
2023-03-26T12:29:26.698Z,7.82
2023-03-26T12:30:49.751Z,7.61
2023-03-26T12:33:34.351Z,6.58
2023-03-26T12:36:34.196Z,6.59
2023-03-26T12:39:17.146Z,5.82
2023-03-26T12:44:44.020Z,5.45
2023-03-26T12:44:59.279Z,6.08
2023-03-26T12:48:00.392Z,5.45
2023-03-26T12:50:34.258Z,6.74
2023-03-26T12:53:15.276Z,11.36
2023-03-26T12:56:01.681Z,5.00
2023-03-26T12:59:00.957Z,4.98
2023-03-26T13:02:20.182Z,5.78
2023-03-26T13:05:05.062Z,5.43
2023-03-26T13:08:12.722Z,5.04
2023-03-26T13:10:50.701Z,4.98
2023-03-26T13:13:46.141Z,4.88
2023-03-26T13:16:36.511Z,5.27
2023-03-26T13:19:28.808Z,5.05
2023-03-26T13:22:14.296Z,4.41
2023-03-26T13:25:04.371Z,4.58
2023-03-26T13:27:49.050Z,4.99
2023-03-26T13:30:38.038Z,4.72
2023-03-26T13:33:34.062Z,4.78
2023-03-26T13:36:24.535Z,4.94
2023-03-26T13:39:00.024Z,4.56
2023-03-26T13:41:58.063Z,4.73
2023-03-26T13:45:04.355Z,4.69
2023-03-26T13:47:38.557Z,5.08
2023-03-26T13:50:27.421Z,4.62
2023-03-26T13:53:06.523Z,4.36
2023-03-26T13:55:47.957Z,4.46
2023-03-26T13:58:36.613Z,4.70
2023-03-26T14:01:24.116Z,4.42
2023-03-26T14:04:07.744Z,4.07
2023-03-26T14:06:57.456Z,5.12
2023-03-26T14:12:57.000Z,3.90
2023-03-26T14:15:35.609Z,3.47
2023-03-26T14:18:23.796Z,4.46
2023-03-26T14:21:27.701Z,3.60
2023-03-26T14:24:31.614Z,4.10
2023-03-26T14:27:05.800Z,3.76
2023-03-26T14:30:02.010Z,4.44
2023-03-26T14:33:33.905Z,4.43
2023-03-26T14:36:19.266Z,4.55
2023-03-26T14:39:09.471Z,4.07
2023-03-26T14:42:02.070Z,4.16
2023-03-26T14:44:47.792Z,4.07
2023-03-26T14:47:37.650Z,4.49
2023-03-26T14:50:08.390Z,4.31
2023-03-26T14:53:01.139Z,4.44
2023-03-26T14:55:37.182Z,4.33
2023-03-26T14:58:53.812Z,4.68
2023-03-26T15:01:26.859Z,4.46
2023-03-26T15:04:11.466Z,4.63
2023-03-26T15:06:45.211Z,5.20
2023-03-26T15:09:56.716Z,4.98
2023-03-26T15:13:00.518Z,4.63
2023-03-26T15:15:58.013Z,4.87
2023-03-26T15:18:55.675Z,4.77
2023-03-26T15:21:37.630Z,4.73
2023-03-26T15:24:25.482Z,4.24
2023-03-26T15:27:19.908Z,4.08
2023-03-26T15:30:25.399Z,4.59
2023-03-26T15:33:10.502Z,4.66
2023-03-26T15:35:58.711Z,4.67
2023-03-26T15:38:56.157Z,4.47
2023-03-26T15:41:45.286Z,4.63
2023-03-26T15:44:25.534Z,4.31
2023-03-26T15:47:26.056Z,4.24
2023-03-26T15:50:15.579Z,5.35
2023-03-26T15:52:56.154Z,4.88
2023-03-26T15:55:31.643Z,4.74
2023-03-26T15:58:16.024Z,5.07
2023-03-26T16:01:19.134Z,5.31
2023-03-26T16:03:58.608Z,5.23
2023-03-26T16:06:32.869Z,5.24
2023-03-26T16:09:04.882Z,5.46
2023-03-26T16:11:57.648Z,5.15
2023-03-26T16:14:43.009Z,4.82
2023-03-26T16:17:23.542Z,4.98
2023-03-26T16:20:32.873Z,5.28
2023-03-26T16:23:04.784Z,4.34
2023-03-26T16:25:56.770Z,5.23
2023-03-26T16:28:30.668Z,5.47
2023-03-26T16:31:23.550Z,4.69
2023-03-26T16:34:03.175Z,4.79
2023-03-26T16:36:35.954Z,4.77
2023-03-26T16:39:05.682Z,4.95
2023-03-26T16:42:06.517Z,5.19
2023-03-26T16:45:14.438Z,4.75
2023-03-26T16:48:07.811Z,4.32
2023-03-26T16:50:49.576Z,4.67
2023-03-26T16:53:46.690Z,4.69
2023-03-26T16:56:50.094Z,4.88
2023-03-26T16:59:41.701Z,4.42
2023-03-26T17:02:31.732Z,3.30
2023-03-26T17:05:37.481Z,3.46
2023-03-26T17:08:13.381Z,3.54
2023-03-26T17:10:58.018Z,3.11
2023-03-26T17:13:36.522Z,3.46
2023-03-26T17:16:24.687Z,3.30
2023-03-26T17:19:06.693Z,3.44
2023-03-26T17:21:55.863Z,3.48
2023-03-26T17:24:28.332Z,3.61
2023-03-26T17:27:07.793Z,3.56
2023-03-26T17:29:58.121Z,3.96
2023-03-26T17:32:57.723Z,4.35
2023-03-26T17:35:39.313Z,3.47
2023-03-26T17:38:40.757Z,3.37
2023-03-26T17:41:24.894Z,3.73
2023-03-26T17:43:52.924Z,3.91
2023-03-26T17:46:39.670Z,4.71
2023-03-26T17:49:12.420Z,3.82
2023-03-26T17:52:45.036Z,3.97
2023-03-26T17:55:20.256Z,3.92
2023-03-26T17:58:08.158Z,4.67
2023-03-26T18:00:43.350Z,4.85
2023-03-26T18:03:23.291Z,4.11
2023-03-26T18:06:00.113Z,3.68
2023-03-26T18:08:44.891Z,3.58
2023-03-26T18:11:23.778Z,3.61
2023-03-26T18:14:03.877Z,3.41
2023-03-26T18:16:38.830Z,3.82
2023-03-26T18:19:18.980Z,4.26
2023-03-26T18:21:52.003Z,4.52
2023-03-26T18:24:27.623Z,4.72
2023-03-26T18:27:16.548Z,4.00
2023-03-26T18:30:27.943Z,3.74
2023-03-26T18:33:01.975Z,3.99
2023-03-26T18:35:54.413Z,3.70
2023-03-26T18:38:34.997Z,3.83
2023-03-26T18:41:06.914Z,3.49
2023-03-26T18:43:44.016Z,3.61
2023-03-26T18:46:15.555Z,3.77
2023-03-26T18:48:43.621Z,3.41
2023-03-26T18:51:11.040Z,4.11
2023-03-26T18:54:15.735Z,4.01
2023-03-26T18:56:39.254Z,3.74
2023-03-26T18:59:32.469Z,3.42
2023-03-26T19:02:04.377Z,3.48
2023-03-26T19:04:36.874Z,3.59
2023-03-26T19:07:09.918Z,3.60
2023-03-26T19:09:38.839Z,3.69
2023-03-26T19:12:18.486Z,4.59
2023-03-26T19:14:58.745Z,4.31
2023-03-26T19:17:31.581Z,4.11
2023-03-26T19:19:58.589Z,4.73
2023-03-26T19:22:26.433Z,4.38
2023-03-26T19:24:59.520Z,5.21
2023-03-26T19:27:26.467Z,5.38
2023-03-26T19:29:53.471Z,4.97
2023-03-26T19:32:28.480Z,4.51
2023-03-26T19:34:59.641Z,4.18
2023-03-26T19:37:33.874Z,4.21
2023-03-26T19:40:06.409Z,4.25
2023-03-26T19:42:44.070Z,4.33
2023-03-26T19:45:23.013Z,4.07
2023-03-26T19:48:00.366Z,3.94
2023-03-26T19:50:34.021Z,4.00
2023-03-26T19:53:18.945Z,3.97
2023-03-26T19:56:08.315Z,3.81
2023-03-26T19:58:36.468Z,3.72
2023-03-26T20:01:04.644Z,3.63
2023-03-26T20:03:43.303Z,4.26
2023-03-26T20:06:15.862Z,4.07
2023-03-26T20:08:42.812Z,4.30
2023-03-26T20:11:38.118Z,4.29
2023-03-26T20:14:13.843Z,3.65
2023-03-26T20:16:42.175Z,3.25
2023-03-26T20:19:11.107Z,3.34
2023-03-26T20:21:41.347Z,3.37
2023-03-26T20:24:16.817Z,3.56
2023-03-26T20:26:45.123Z,3.06
2023-03-26T20:29:13.060Z,3.28
2023-03-26T20:31:43.696Z,3.65
2023-03-26T20:34:23.368Z,3.16
2023-03-26T20:36:57.188Z,3.40
2023-03-26T20:39:28.054Z,3.10
2023-03-26T20:41:56.105Z,3.25
2023-03-26T20:44:23.361Z,3.70
2023-03-26T20:46:50.789Z,3.70
2023-03-26T20:49:18.314Z,3.70
2023-03-26T20:51:46.437Z,3.69
2023-03-26T20:54:17.588Z,3.18
2023-03-26T20:56:45.538Z,3.23
2023-03-26T20:59:18.959Z,3.30
2023-03-26T21:01:47.363Z,3.12
2023-03-26T21:04:16.037Z,3.05
2023-03-26T21:06:43.446Z,3.17
2023-03-26T21:09:17.550Z,3.75
2023-03-26T21:12:02.570Z,3.64
2023-03-26T21:14:40.337Z,3.58
2023-03-26T21:17:15.686Z,3.71
2023-03-26T21:19:43.632Z,3.47
2023-03-26T21:22:22.540Z,3.56
2023-03-26T21:24:59.502Z,3.68
2023-03-26T21:27:34.670Z,3.57
2023-03-26T21:30:01.933Z,3.42
2023-03-26T21:32:29.665Z,3.30
2023-03-26T21:34:58.995Z,3.32
2023-03-26T21:37:27.424Z,3.44
2023-03-26T21:39:54.196Z,3.39
2023-03-26T21:42:21.234Z,3.48
2023-03-26T21:44:48.153Z,3.60
2023-03-26T21:47:14.980Z,3.71
2023-03-26T21:49:41.865Z,3.32
2023-03-26T21:52:14.768Z,3.21
2023-03-26T21:54:43.022Z,3.57
2023-03-26T21:57:42.199Z,3.14
2023-03-26T22:00:16.078Z,3.43
2023-03-26T22:03:09.370Z,3.87
2023-03-26T22:05:57.554Z,4.78
2023-03-26T22:08:38.873Z,3.20
2023-03-26T22:11:07.119Z,3.27
2023-03-26T22:13:38.460Z,3.79
2023-03-26T22:16:07.363Z,4.09
2023-03-26T22:18:34.813Z,3.80
2023-03-26T22:21:01.979Z,3.24
2023-03-26T22:23:34.337Z,3.49
2023-03-26T22:26:00.929Z,4.06
2023-03-26T22:28:27.618Z,3.39
2023-03-26T22:30:54.397Z,3.50
2023-03-26T22:33:21.203Z,3.83
2023-03-26T22:35:47.874Z,3.40
2023-03-26T22:38:14.924Z,3.55
2023-03-26T22:40:41.501Z,3.52
2023-03-26T22:43:09.180Z,3.50
2023-03-26T22:45:37.434Z,3.43
2023-03-26T22:48:04.782Z,3.56
2023-03-26T22:50:32.402Z,3.35
2023-03-26T22:52:59.099Z,3.59
2023-03-26T22:55:29.006Z,3.93
2023-03-26T22:57:56.872Z,3.46
2023-03-26T23:00:23.923Z,3.67
2023-03-26T23:02:50.608Z,3.34
2023-03-26T23:05:18.133Z,3.60
2023-03-26T23:07:46.254Z,3.71
2023-03-26T23:10:13.547Z,3.88
2023-03-26T23:12:41.200Z,3.64
2023-03-26T23:15:09.707Z,3.89
2023-03-26T23:17:37.619Z,3.62
2023-03-26T23:20:12.454Z,4.02
2023-03-26T23:22:39.021Z,4.08
2023-03-26T23:25:06.471Z,4.35
2023-03-26T23:27:33.059Z,4.35
2023-03-26T23:30:01.169Z,4.19
2023-03-26T23:32:28.069Z,4.05
2023-03-26T23:34:55.813Z,4.31
2023-03-26T23:37:23.198Z,4.07
2023-03-26T23:39:51.008Z,3.73
2023-03-26T23:42:28.923Z,3.97
2023-03-26T23:44:57.418Z,3.71
2023-03-26T23:47:24.572Z,3.59
2023-03-26T23:49:51.360Z,4.05
2023-03-26T23:52:18.297Z,3.88
2023-03-26T23:54:45.657Z,3.63
2023-03-26T23:57:12.584Z,3.59
2023-03-26T23:59:41.544Z,3.48
